sensor_id;sensor_type;location;lat;lon;timestamp;pressure;altitude;pressure_sealevel;temperature;humidity
34983;BME280;21187;50.976;13.720;2023-06-26T00:05:01;98352.44;;;22.86;44.98
34983;BME280;21187;50.976;13.720;2023-06-26T00:10:04;98351.03;;;22.77;45.18
34983;BME280;21187;50.976;13.720;2023-06-26T00:15:07;98343.84;;;22.64;45.63
34983;BME280;21187;50.976;13.720;2023-06-26T00:20:09;98346.66;;;22.60;45.67
34983;BME280;21187;50.976;13.720;2023-06-26T00:25:14;98339.25;;;22.57;45.62
34983;BME280;21187;50.976;13.720;2023-06-26T00:30:16;98340.44;;;22.56;45.76
34983;BME280;21187;50.976;13.720;2023-06-26T00:35:18;98331.47;;;22.52;45.74
34983;BME280;21187;50.976;13.720;2023-06-26T00:40:20;98330.41;;;22.46;45.77
34983;BME280;21187;50.976;13.720;2023-06-26T00:45:22;98329.81;;;22.34;46.07
34983;BME280;21187;50.976;13.720;2023-06-26T00:50:34;98324.94;;;22.22;46.18
34983;BME280;21187;50.976;13.720;2023-06-26T00:55:36;98319.72;;;22.07;46.47
34983;BME280;21187;50.976;13.720;2023-06-26T01:00:39;98316.69;;;22.02;46.67
34983;BME280;21187;50.976;13.720;2023-06-26T01:05:41;98330.09;;;22.00;46.79
34983;BME280;21187;50.976;13.720;2023-06-26T01:10:47;98312.19;;;21.88;47.01
34983;BME280;21187;50.976;13.720;2023-06-26T01:15:49;98315.59;;;21.75;47.38
34983;BME280;21187;50.976;13.720;2023-06-26T01:20:51;98308.50;;;21.74;47.26
34983;BME280;21187;50.976;13.720;2023-06-26T01:26:19;98299.03;;;21.75;47.19
34983;BME280;21187;50.976;13.720;2023-06-26T01:31:21;98312.13;;;21.71;47.29
34983;BME280;21187;50.976;13.720;2023-06-26T01:36:24;98306.38;;;21.62;47.61
34983;BME280;21187;50.976;13.720;2023-06-26T01:41:26;98303.38;;;21.53;47.57
34983;BME280;21187;50.976;13.720;2023-06-26T01:57:09;98274.00;;;21.42;48.06
34983;BME280;21187;50.976;13.720;2023-06-26T02:02:13;98275.91;;;21.45;47.79
34983;BME280;21187;50.976;13.720;2023-06-26T02:07:15;98278.94;;;21.55;47.79
34983;BME280;21187;50.976;13.720;2023-06-26T02:12:17;98272.25;;;21.52;47.79
34983;BME280;21187;50.976;13.720;2023-06-26T02:17:20;98272.34;;;21.49;47.78
34983;BME280;21187;50.976;13.720;2023-06-26T02:22:22;98272.81;;;21.43;48.02
34983;BME280;21187;50.976;13.720;2023-06-26T02:27:23;98271.25;;;21.42;48.16
34983;BME280;21187;50.976;13.720;2023-06-26T02:32:27;98269.00;;;21.37;48.00
34983;BME280;21187;50.976;13.720;2023-06-26T02:37:29;98271.38;;;21.35;48.28
34983;BME280;21187;50.976;13.720;2023-06-26T02:42:31;98256.97;;;21.27;48.33
34983;BME280;21187;50.976;13.720;2023-06-26T02:47:33;98272.41;;;21.21;48.49
34983;BME280;21187;50.976;13.720;2023-06-26T02:52:36;98263.47;;;21.14;48.59
34983;BME280;21187;50.976;13.720;2023-06-26T02:57:38;98259.59;;;21.11;48.83
34983;BME280;21187;50.976;13.720;2023-06-26T03:02:40;98257.25;;;21.09;48.83
34983;BME280;21187;50.976;13.720;2023-06-26T03:07:45;98253.66;;;21.13;48.95
34983;BME280;21187;50.976;13.720;2023-06-26T03:12:47;98253.91;;;21.22;49.00
34983;BME280;21187;50.976;13.720;2023-06-26T03:17:51;98251.38;;;21.31;48.81
34983;BME280;21187;50.976;13.720;2023-06-26T03:22:58;98245.03;;;21.34;49.00
34983;BME280;21187;50.976;13.720;2023-06-26T03:28:01;98249.22;;;21.42;48.92
34983;BME280;21187;50.976;13.720;2023-06-26T03:33:05;98252.88;;;21.59;48.67
34983;BME280;21187;50.976;13.720;2023-06-26T03:38:07;98246.47;;;21.66;48.85
34983;BME280;21187;50.976;13.720;2023-06-26T03:43:09;98242.50;;;21.67;48.78
34983;BME280;21187;50.976;13.720;2023-06-26T03:48:31;98251.00;;;21.76;48.71
34983;BME280;21187;50.976;13.720;2023-06-26T03:53:33;98238.19;;;21.86;48.65
34983;BME280;21187;50.976;13.720;2023-06-26T03:58:35;98234.00;;;21.98;48.48
34983;BME280;21187;50.976;13.720;2023-06-26T04:03:38;98240.44;;;22.11;48.35
34983;BME280;21187;50.976;13.720;2023-06-26T04:08:41;98230.28;;;22.25;48.37
34983;BME280;21187;50.976;13.720;2023-06-26T04:13:43;98232.44;;;22.37;48.23
34983;BME280;21187;50.976;13.720;2023-06-26T04:18:45;98218.75;;;22.50;48.17
34983;BME280;21187;50.976;13.720;2023-06-26T04:23:47;98220.41;;;22.64;48.32
34983;BME280;21187;50.976;13.720;2023-06-26T04:28:49;98224.53;;;22.72;48.53
34983;BME280;21187;50.976;13.720;2023-06-26T04:33:51;98222.50;;;22.76;48.36
34983;BME280;21187;50.976;13.720;2023-06-26T04:38:56;98220.41;;;22.81;48.33
34983;BME280;21187;50.976;13.720;2023-06-26T04:43:58;98219.03;;;22.89;48.31
34983;BME280;21187;50.976;13.720;2023-06-26T04:49:00;98220.75;;;22.99;48.38
34983;BME280;21187;50.976;13.720;2023-06-26T04:54:06;98214.91;;;23.14;48.23
34983;BME280;21187;50.976;13.720;2023-06-26T04:59:08;98217.81;;;23.23;48.31
34983;BME280;21187;50.976;13.720;2023-06-26T05:04:15;98210.38;;;23.36;48.22
34983;BME280;21187;50.976;13.720;2023-06-26T05:09:17;98214.72;;;23.50;48.15
34983;BME280;21187;50.976;13.720;2023-06-26T05:14:20;98212.00;;;23.63;48.35
34983;BME280;21187;50.976;13.720;2023-06-26T05:19:26;98206.97;;;23.74;48.00
34983;BME280;21187;50.976;13.720;2023-06-26T05:24:29;98199.91;;;23.86;47.92
34983;BME280;21187;50.976;13.720;2023-06-26T05:29:32;98199.72;;;23.93;48.25
34983;BME280;21187;50.976;13.720;2023-06-26T05:34:39;98188.69;;;24.06;48.17
34983;BME280;21187;50.976;13.720;2023-06-26T05:39:43;98191.34;;;24.23;47.91
34983;BME280;21187;50.976;13.720;2023-06-26T05:44:45;98198.00;;;24.38;48.01
34983;BME280;21187;50.976;13.720;2023-06-26T05:49:47;98192.69;;;24.57;48.00
34983;BME280;21187;50.976;13.720;2023-06-26T05:54:49;98178.63;;;24.77;48.03
34983;BME280;21187;50.976;13.720;2023-06-26T05:59:51;98186.44;;;25.04;47.69
34983;BME280;21187;50.976;13.720;2023-06-26T06:04:53;98185.81;;;25.35;47.58
34983;BME280;21187;50.976;13.720;2023-06-26T06:09:55;98178.00;;;25.65;47.74
34983;BME280;21187;50.976;13.720;2023-06-26T06:14:57;98181.09;;;25.89;47.25
34983;BME280;21187;50.976;13.720;2023-06-26T06:19:59;98176.31;;;26.12;46.96
34983;BME280;21187;50.976;13.720;2023-06-26T06:25:01;98177.00;;;26.35;46.59
34983;BME280;21187;50.976;13.720;2023-06-26T06:30:03;98161.16;;;26.54;46.48
34983;BME280;21187;50.976;13.720;2023-06-26T06:35:08;98165.56;;;26.73;46.20
34983;BME280;21187;50.976;13.720;2023-06-26T06:40:12;98166.22;;;26.87;46.14
34983;BME280;21187;50.976;13.720;2023-06-26T06:45:14;98161.75;;;27.08;45.93
34983;BME280;21187;50.976;13.720;2023-06-26T06:50:16;98150.66;;;27.36;45.93
34983;BME280;21187;50.976;13.720;2023-06-26T06:55:20;98154.63;;;27.72;45.53
34983;BME280;21187;50.976;13.720;2023-06-26T07:00:21;98147.91;;;28.06;44.95
34983;BME280;21187;50.976;13.720;2023-06-26T07:05:23;98151.66;;;28.37;44.66
34983;BME280;21187;50.976;13.720;2023-06-26T07:10:25;98152.13;;;28.60;43.85
34983;BME280;21187;50.976;13.720;2023-06-26T07:15:27;98151.47;;;28.74;43.82
34983;BME280;21187;50.976;13.720;2023-06-26T07:20:29;98151.34;;;28.93;43.97
34983;BME280;21187;50.976;13.720;2023-06-26T07:25:31;98147.16;;;29.12;43.41
34983;BME280;21187;50.976;13.720;2023-06-26T07:30:33;98139.06;;;29.38;43.19
34983;BME280;21187;50.976;13.720;2023-06-26T07:35:35;98144.47;;;29.57;42.99
34983;BME280;21187;50.976;13.720;2023-06-26T07:40:37;98134.34;;;29.75;41.96
34983;BME280;21187;50.976;13.720;2023-06-26T07:45:40;98139.75;;;29.93;41.88
34983;BME280;21187;50.976;13.720;2023-06-26T07:50:42;98133.22;;;29.96;41.33
34983;BME280;21187;50.976;13.720;2023-06-26T07:55:44;98134.56;;;30.16;41.03
34983;BME280;21187;50.976;13.720;2023-06-26T08:00:46;98135.56;;;30.33;39.04
34983;BME280;21187;50.976;13.720;2023-06-26T08:05:49;98119.31;;;30.52;37.11
34983;BME280;21187;50.976;13.720;2023-06-26T08:10:51;98132.25;;;30.50;35.13
34983;BME280;21187;50.976;13.720;2023-06-26T08:15:53;98125.56;;;30.62;35.31
34983;BME280;21187;50.976;13.720;2023-06-26T08:20:56;98117.47;;;30.85;35.19
34983;BME280;21187;50.976;13.720;2023-06-26T08:25:58;98108.22;;;30.99;34.35
34983;BME280;21187;50.976;13.720;2023-06-26T08:31:00;98123.19;;;31.17;33.80
34983;BME280;21187;50.976;13.720;2023-06-26T08:36:02;98117.03;;;31.13;33.75
34983;BME280;21187;50.976;13.720;2023-06-26T08:41:04;98098.38;;;31.30;32.55
34983;BME280;21187;50.976;13.720;2023-06-26T08:46:10;98113.25;;;31.16;32.06
34983;BME280;21187;50.976;13.720;2023-06-26T08:51:17;98098.72;;;31.12;31.65
34983;BME280;21187;50.976;13.720;2023-06-26T08:56:21;98089.59;;;31.17;31.86
34983;BME280;21187;50.976;13.720;2023-06-26T09:01:24;98096.25;;;31.46;31.78
34983;BME280;21187;50.976;13.720;2023-06-26T09:06:27;98090.69;;;31.51;31.46
34983;BME280;21187;50.976;13.720;2023-06-26T09:11:29;98086.63;;;31.79;31.94
34983;BME280;21187;50.976;13.720;2023-06-26T09:16:30;98091.31;;;31.93;31.06
34983;BME280;21187;50.976;13.720;2023-06-26T09:21:32;98090.63;;;32.04;30.79
34983;BME280;21187;50.976;13.720;2023-06-26T09:26:39;98076.22;;;32.17;30.76
34983;BME280;21187;50.976;13.720;2023-06-26T09:31:41;98078.72;;;32.15;30.51
34983;BME280;21187;50.976;13.720;2023-06-26T09:36:45;98086.94;;;32.18;30.44
34983;BME280;21187;50.976;13.720;2023-06-26T09:41:48;98075.28;;;32.31;30.60
34983;BME280;21187;50.976;13.720;2023-06-26T09:46:51;98073.28;;;32.38;30.41
34983;BME280;21187;50.976;13.720;2023-06-26T09:51:53;98071.69;;;32.25;30.54
34983;BME280;21187;50.976;13.720;2023-06-26T09:56:58;98072.94;;;32.24;30.22
34983;BME280;21187;50.976;13.720;2023-06-26T10:02:08;98064.06;;;32.31;30.59
34983;BME280;21187;50.976;13.720;2023-06-26T10:07:11;98057.03;;;32.53;30.51
34983;BME280;21187;50.976;13.720;2023-06-26T10:12:27;98053.06;;;32.77;29.98
34983;BME280;21187;50.976;13.720;2023-06-26T10:17:34;98055.69;;;32.97;29.67
34983;BME280;21187;50.976;13.720;2023-06-26T10:22:44;98047.28;;;33.09;28.07
34983;BME280;21187;50.976;13.720;2023-06-26T10:27:53;98038.88;;;33.09;28.67
34983;BME280;21187;50.976;13.720;2023-06-26T10:32:56;98045.50;;;33.06;29.03
34983;BME280;21187;50.976;13.720;2023-06-26T10:38:02;98037.31;;;32.96;28.83
34983;BME280;21187;50.976;13.720;2023-06-26T10:43:09;98037.44;;;32.59;29.40
34983;BME280;21187;50.976;13.720;2023-06-26T10:48:14;98045.44;;;32.83;29.17
34983;BME280;21187;50.976;13.720;2023-06-26T10:58:28;98030.16;;;32.95;28.48
34983;BME280;21187;50.976;13.720;2023-06-26T11:03:37;98027.06;;;32.82;28.23
34983;BME280;21187;50.976;13.720;2023-06-26T11:08:49;98027.44;;;32.46;28.63
34983;BME280;21187;50.976;13.720;2023-06-26T11:13:51;98020.28;;;32.40;29.24
34983;BME280;21187;50.976;13.720;2023-06-26T11:18:58;98017.31;;;32.60;28.61
34983;BME280;21187;50.976;13.720;2023-06-26T11:24:02;98009.19;;;32.68;27.77
34983;BME280;21187;50.976;13.720;2023-06-26T11:29:05;98029.13;;;32.93;28.08
34983;BME280;21187;50.976;13.720;2023-06-26T11:34:12;97998.06;;;33.08;27.80
34983;BME280;21187;50.976;13.720;2023-06-26T11:39:14;98010.34;;;33.39;28.15
34983;BME280;21187;50.976;13.720;2023-06-26T11:44:16;97999.34;;;33.69;26.81
34983;BME280;21187;50.976;13.720;2023-06-26T11:49:22;97997.31;;;33.58;26.87
34983;BME280;21187;50.976;13.720;2023-06-26T11:54:27;97994.50;;;33.81;26.92
34983;BME280;21187;50.976;13.720;2023-06-26T11:59:39;97988.81;;;34.04;26.35
34983;BME280;21187;50.976;13.720;2023-06-26T12:04:42;97976.47;;;34.29;26.69
34983;BME280;21187;50.976;13.720;2023-06-26T12:09:46;97981.59;;;34.25;26.44
34983;BME280;21187;50.976;13.720;2023-06-26T12:14:51;97986.75;;;34.10;26.93
34983;BME280;21187;50.976;13.720;2023-06-26T12:19:53;97988.25;;;34.16;26.43
34983;BME280;21187;50.976;13.720;2023-06-26T12:24:56;97969.25;;;34.45;26.36
34983;BME280;21187;50.976;13.720;2023-06-26T12:29:58;97967.88;;;34.63;25.61
34983;BME280;21187;50.976;13.720;2023-06-26T12:35:00;97967.28;;;34.76;26.04
34983;BME280;21187;50.976;13.720;2023-06-26T12:40:03;97952.31;;;34.98;25.89
34983;BME280;21187;50.976;13.720;2023-06-26T12:45:12;97945.06;;;35.09;25.23
34983;BME280;21187;50.976;13.720;2023-06-26T12:50:37;97941.94;;;34.82;25.07
34983;BME280;21187;50.976;13.720;2023-06-26T12:55:39;97950.38;;;34.82;25.14
34983;BME280;21187;50.976;13.720;2023-06-26T13:00:41;97931.13;;;34.92;25.45
34983;BME280;21187;50.976;13.720;2023-06-26T13:05:44;97941.13;;;34.93;25.27
34983;BME280;21187;50.976;13.720;2023-06-26T13:10:46;97937.06;;;34.82;25.52
34983;BME280;21187;50.976;13.720;2023-06-26T13:15:48;97921.00;;;34.77;25.44
34983;BME280;21187;50.976;13.720;2023-06-26T13:20:50;97922.22;;;34.88;25.60
34983;BME280;21187;50.976;13.720;2023-06-26T13:25:52;97915.72;;;34.98;24.94
34983;BME280;21187;50.976;13.720;2023-06-26T13:30:54;97901.28;;;34.77;24.57
34983;BME280;21187;50.976;13.720;2023-06-26T13:35:57;97886.28;;;34.69;25.02
34983;BME280;21187;50.976;13.720;2023-06-26T13:40:59;97883.38;;;34.80;24.27
34983;BME280;21187;50.976;13.720;2023-06-26T13:46:04;97887.66;;;34.57;24.38
34983;BME280;21187;50.976;13.720;2023-06-26T13:51:07;97882.78;;;34.57;23.92
34983;BME280;21187;50.976;13.720;2023-06-26T13:56:09;97876.94;;;34.49;24.83
34983;BME280;21187;50.976;13.720;2023-06-26T14:01:11;97870.47;;;34.60;24.73
34983;BME280;21187;50.976;13.720;2023-06-26T14:06:14;97872.16;;;34.75;24.11
34983;BME280;21187;50.976;13.720;2023-06-26T14:11:18;97854.38;;;34.61;23.14
34983;BME280;21187;50.976;13.720;2023-06-26T14:16:20;97858.81;;;34.50;23.35
34983;BME280;21187;50.976;13.720;2023-06-26T14:21:25;97849.09;;;34.52;23.14
34983;BME280;21187;50.976;13.720;2023-06-26T14:26:29;97838.91;;;34.43;23.58
34983;BME280;21187;50.976;13.720;2023-06-26T14:31:31;97830.84;;;34.22;23.35
34983;BME280;21187;50.976;13.720;2023-06-26T14:36:35;97824.25;;;34.14;23.67
34983;BME280;21187;50.976;13.720;2023-06-26T14:41:36;97811.00;;;34.09;23.59
34983;BME280;21187;50.976;13.720;2023-06-26T14:46:39;97788.47;;;34.20;24.02
34983;BME280;21187;50.976;13.720;2023-06-26T14:51:42;97771.72;;;34.39;23.97
34983;BME280;21187;50.976;13.720;2023-06-26T14:56:44;97767.63;;;34.04;23.71
34983;BME280;21187;50.976;13.720;2023-06-26T15:01:47;97773.94;;;34.10;24.37
34983;BME280;21187;50.976;13.720;2023-06-26T15:06:52;97749.28;;;33.97;23.73
34983;BME280;21187;50.976;13.720;2023-06-26T15:11:54;97749.19;;;34.09;23.79
34983;BME280;21187;50.976;13.720;2023-06-26T15:16:57;97749.44;;;34.11;23.92
34983;BME280;21187;50.976;13.720;2023-06-26T15:21:59;97750.25;;;34.06;23.41
34983;BME280;21187;50.976;13.720;2023-06-26T15:27:01;97742.41;;;33.93;23.66
34983;BME280;21187;50.976;13.720;2023-06-26T15:32:06;97747.88;;;33.74;24.25
34983;BME280;21187;50.976;13.720;2023-06-26T15:37:08;97749.00;;;33.48;24.36
34983;BME280;21187;50.976;13.720;2023-06-26T15:42:10;97748.84;;;33.29;24.66
34983;BME280;21187;50.976;13.720;2023-06-26T15:47:12;97747.84;;;33.21;24.83
34983;BME280;21187;50.976;13.720;2023-06-26T15:52:14;97740.47;;;33.00;25.14
34983;BME280;21187;50.976;13.720;2023-06-26T15:57:16;97749.19;;;32.91;25.64
34983;BME280;21187;50.976;13.720;2023-06-26T16:02:18;97742.84;;;32.74;25.85
34983;BME280;21187;50.976;13.720;2023-06-26T16:07:19;97745.41;;;32.55;26.29
34983;BME280;21187;50.976;13.720;2023-06-26T16:12:25;97748.44;;;32.45;26.03
34983;BME280;21187;50.976;13.720;2023-06-26T16:17:27;97831.25;;;32.41;26.64
34983;BME280;21187;50.976;13.720;2023-06-26T16:22:29;97870.09;;;31.50;30.16
34983;BME280;21187;50.976;13.720;2023-06-26T16:27:31;97889.34;;;30.20;34.64
34983;BME280;21187;50.976;13.720;2023-06-26T16:32:33;97876.63;;;29.07;36.86
34983;BME280;21187;50.976;13.720;2023-06-26T16:37:35;97862.78;;;27.98;38.83
34983;BME280;21187;50.976;13.720;2023-06-26T16:42:37;97883.59;;;27.21;41.77
34983;BME280;21187;50.976;13.720;2023-06-26T16:47:39;97869.25;;;26.70;41.88
34983;BME280;21187;50.976;13.720;2023-06-26T16:52:41;97885.00;;;26.55;42.28
34983;BME280;21187;50.976;13.720;2023-06-26T16:57:44;97886.88;;;26.49;42.02
34983;BME280;21187;50.976;13.720;2023-06-26T17:02:46;97907.69;;;26.44;42.02
34983;BME280;21187;50.976;13.720;2023-06-26T17:07:49;97898.44;;;26.38;41.82
34983;BME280;21187;50.976;13.720;2023-06-26T17:12:51;97919.56;;;26.17;42.49
34983;BME280;21187;50.976;13.720;2023-06-26T17:17:53;97920.94;;;25.94;43.36
34983;BME280;21187;50.976;13.720;2023-06-26T17:22:56;97938.31;;;25.85;44.21
34983;BME280;21187;50.976;13.720;2023-06-26T17:28:00;97936.78;;;25.93;44.51
34983;BME280;21187;50.976;13.720;2023-06-26T17:33:02;97941.91;;;25.45;46.85
34983;BME280;21187;50.976;13.720;2023-06-26T17:38:05;97975.59;;;25.12;48.57
34983;BME280;21187;50.976;13.720;2023-06-26T17:43:09;97993.78;;;24.68;50.18
34983;BME280;21187;50.976;13.720;2023-06-26T17:48:13;98010.53;;;24.87;49.62
34983;BME280;21187;50.976;13.720;2023-06-26T17:53:15;98024.69;;;24.89;50.59
34983;BME280;21187;50.976;13.720;2023-06-26T17:58:17;98029.34;;;24.92;50.28
34983;BME280;21187;50.976;13.720;2023-06-26T18:03:19;98034.75;;;25.18;49.75
34983;BME280;21187;50.976;13.720;2023-06-26T18:08:21;98040.22;;;25.08;50.56
34983;BME280;21187;50.976;13.720;2023-06-26T18:13:24;98051.94;;;25.13;51.05
34983;BME280;21187;50.976;13.720;2023-06-26T18:18:26;98059.88;;;25.01;51.35
34983;BME280;21187;50.976;13.720;2023-06-26T18:23:28;98072.53;;;25.02;51.63
34983;BME280;21187;50.976;13.720;2023-06-26T18:28:30;98102.91;;;24.93;52.56
34983;BME280;21187;50.976;13.720;2023-06-26T18:33:34;98090.13;;;24.73;52.37
34983;BME280;21187;50.976;13.720;2023-06-26T18:38:36;98105.63;;;24.84;51.69
34983;BME280;21187;50.976;13.720;2023-06-26T18:43:41;98096.13;;;24.94;51.22
34983;BME280;21187;50.976;13.720;2023-06-26T18:48:59;98115.78;;;24.87;50.86
34983;BME280;21187;50.976;13.720;2023-06-26T18:54:02;98136.09;;;24.71;50.87
34983;BME280;21187;50.976;13.720;2023-06-26T18:59:05;98134.88;;;24.59;51.16
34983;BME280;21187;50.976;13.720;2023-06-26T19:04:07;98103.34;;;24.43;51.37
34983;BME280;21187;50.976;13.720;2023-06-26T19:09:09;98118.72;;;24.45;51.27
34983;BME280;21187;50.976;13.720;2023-06-26T19:14:11;98151.59;;;24.42;51.11
34983;BME280;21187;50.976;13.720;2023-06-26T19:19:13;98156.16;;;24.36;51.01
34983;BME280;21187;50.976;13.720;2023-06-26T19:24:15;98170.88;;;24.33;51.16
34983;BME280;21187;50.976;13.720;2023-06-26T19:29:19;98165.69;;;24.35;51.33
34983;BME280;21187;50.976;13.720;2023-06-26T19:34:23;98173.44;;;24.40;51.34
34983;BME280;21187;50.976;13.720;2023-06-26T19:39:25;98177.19;;;24.47;51.48
34983;BME280;21187;50.976;13.720;2023-06-26T19:44:27;98173.31;;;24.44;51.06
34983;BME280;21187;50.976;13.720;2023-06-26T19:49:29;98159.03;;;24.46;51.02
34983;BME280;21187;50.976;13.720;2023-06-26T19:54:31;98189.91;;;24.44;51.36
34983;BME280;21187;50.976;13.720;2023-06-26T19:59:33;98186.72;;;24.46;51.22
34983;BME280;21187;50.976;13.720;2023-06-26T20:04:35;98194.47;;;24.51;51.48
34983;BME280;21187;50.976;13.720;2023-06-26T20:09:38;98193.91;;;24.43;52.04
34983;BME280;21187;50.976;13.720;2023-06-26T20:14:40;98183.06;;;24.49;51.95
34983;BME280;21187;50.976;13.720;2023-06-26T20:19:42;98169.97;;;24.49;51.75
34983;BME280;21187;50.976;13.720;2023-06-26T20:24:44;98165.25;;;24.50;51.51
34983;BME280;21187;50.976;13.720;2023-06-26T20:29:46;98158.69;;;24.43;51.57
34983;BME280;21187;50.976;13.720;2023-06-26T20:34:48;98171.88;;;24.39;51.79
34983;BME280;21187;50.976;13.720;2023-06-26T20:39:50;98174.88;;;24.19;52.39
34983;BME280;21187;50.976;13.720;2023-06-26T20:44:52;98151.28;;;24.15;52.54
34983;BME280;21187;50.976;13.720;2023-06-26T20:49:57;98160.38;;;24.02;52.95
34983;BME280;21187;50.976;13.720;2023-06-26T20:55:00;98145.31;;;24.03;52.79
34983;BME280;21187;50.976;13.720;2023-06-26T21:00:02;98148.31;;;24.09;52.78
34983;BME280;21187;50.976;13.720;2023-06-26T21:05:05;98147.75;;;24.01;53.08
34983;BME280;21187;50.976;13.720;2023-06-26T21:10:07;98154.03;;;23.89;53.12
34983;BME280;21187;50.976;13.720;2023-06-26T21:15:10;98157.97;;;23.75;53.78
34983;BME280;21187;50.976;13.720;2023-06-26T21:20:12;98148.09;;;23.61;54.14
34983;BME280;21187;50.976;13.720;2023-06-26T21:25:14;98142.56;;;23.61;54.08
34983;BME280;21187;50.976;13.720;2023-06-26T21:30:16;98138.56;;;23.62;54.05
34983;BME280;21187;50.976;13.720;2023-06-26T21:35:18;98153.63;;;23.61;53.82
34983;BME280;21187;50.976;13.720;2023-06-26T21:40:41;98156.66;;;23.37;54.36
34983;BME280;21187;50.976;13.720;2023-06-26T21:45:43;98133.22;;;22.96;55.43
34983;BME280;21187;50.976;13.720;2023-06-26T21:50:45;98114.75;;;22.64;56.09
34983;BME280;21187;50.976;13.720;2023-06-26T21:55:46;98112.59;;;22.71;56.21
34983;BME280;21187;50.976;13.720;2023-06-26T22:00:48;98116.19;;;22.85;55.81
34983;BME280;21187;50.976;13.720;2023-06-26T22:05:51;98122.75;;;22.74;56.15
34983;BME280;21187;50.976;13.720;2023-06-26T22:10:53;98118.94;;;22.68;56.48
34983;BME280;21187;50.976;13.720;2023-06-26T22:15:55;98114.47;;;22.58;56.83
34983;BME280;21187;50.976;13.720;2023-06-26T22:20:57;98111.03;;;22.37;57.38
34983;BME280;21187;50.976;13.720;2023-06-26T22:25:58;98117.13;;;22.12;58.21
34983;BME280;21187;50.976;13.720;2023-06-26T22:31:00;98127.59;;;22.01;58.29
34983;BME280;21187;50.976;13.720;2023-06-26T22:36:02;98127.84;;;21.90;58.86
34983;BME280;21187;50.976;13.720;2023-06-26T22:41:04;98137.81;;;21.84;58.94
34983;BME280;21187;50.976;13.720;2023-06-26T22:46:06;98147.25;;;22.03;58.31
34983;BME280;21187;50.976;13.720;2023-06-26T22:51:08;98150.47;;;22.18;57.94
34983;BME280;21187;50.976;13.720;2023-06-26T22:56:10;98136.50;;;22.25;57.74
34983;BME280;21187;50.976;13.720;2023-06-26T23:01:12;98135.19;;;22.13;57.96
34983;BME280;21187;50.976;13.720;2023-06-26T23:06:15;98131.41;;;22.07;58.40
34983;BME280;21187;50.976;13.720;2023-06-26T23:11:23;98182.97;;;21.90;59.18
34983;BME280;21187;50.976;13.720;2023-06-26T23:16:25;98182.00;;;21.60;60.20
34983;BME280;21187;50.976;13.720;2023-06-26T23:21:27;98179.91;;;21.44;60.86
34983;BME280;21187;50.976;13.720;2023-06-26T23:26:29;98179.63;;;21.18;61.66
34983;BME280;21187;50.976;13.720;2023-06-26T23:31:32;98194.19;;;21.39;60.73
34983;BME280;21187;50.976;13.720;2023-06-26T23:36:34;98207.53;;;21.40;60.52
34983;BME280;21187;50.976;13.720;2023-06-26T23:41:39;98215.44;;;21.38;59.88
34983;BME280;21187;50.976;13.720;2023-06-26T23:46:41;98238.25;;;21.39;58.93
34983;BME280;21187;50.976;13.720;2023-06-26T23:51:43;98248.44;;;21.42;58.43
34983;BME280;21187;50.976;13.720;2023-06-26T23:56:45;98247.66;;;21.41;57.89
